sensor_id;sensor_type;location;lat;lon;timestamp;P1;durP1;ratioP1;P2;durP2;ratioP2
54247;SDS011;40161;39.768;2.722;2022-07-11T00:01:50;4.68;;;2.28;;
54247;SDS011;40161;39.768;2.722;2022-07-11T00:04:17;3.88;;;2.13;;
54247;SDS011;40161;39.768;2.722;2022-07-11T00:06:42;4.50;;;2.15;;
54247;SDS011;40161;39.768;2.722;2022-07-11T00:09:08;4.40;;;2.20;;
54247;SDS011;40161;39.768;2.722;2022-07-11T00:11:33;4.68;;;2.20;;
54247;SDS011;40161;39.768;2.722;2022-07-11T00:13:59;4.18;;;2.00;;
54247;SDS011;40161;39.768;2.722;2022-07-11T00:16:25;3.33;;;2.00;;
54247;SDS011;40161;39.768;2.722;2022-07-11T00:18:50;5.53;;;2.28;;
54247;SDS011;40161;39.768;2.722;2022-07-11T00:21:16;3.90;;;1.88;;
54247;SDS011;40161;39.768;2.722;2022-07-11T00:23:41;4.43;;;2.10;;
54247;SDS011;40161;39.768;2.722;2022-07-11T00:26:08;4.68;;;1.98;;
54247;SDS011;40161;39.768;2.722;2022-07-11T00:28:33;4.80;;;2.03;;
54247;SDS011;40161;39.768;2.722;2022-07-11T00:30:59;5.30;;;2.10;;
54247;SDS011;40161;39.768;2.722;2022-07-11T00:33:24;7.05;;;1.80;;
54247;SDS011;40161;39.768;2.722;2022-07-11T00:35:51;4.10;;;2.08;;
54247;SDS011;40161;39.768;2.722;2022-07-11T00:38:16;3.20;;;1.75;;
54247;SDS011;40161;39.768;2.722;2022-07-11T00:40:42;4.10;;;1.80;;
54247;SDS011;40161;39.768;2.722;2022-07-11T00:43:07;3.78;;;2.00;;
54247;SDS011;40161;39.768;2.722;2022-07-11T00:45:33;5.70;;;2.20;;
54247;SDS011;40161;39.768;2.722;2022-07-11T00:47:58;3.90;;;2.30;;
54247;SDS011;40161;39.768;2.722;2022-07-11T00:50:24;3.08;;;1.70;;
54247;SDS011;40161;39.768;2.722;2022-07-11T00:52:50;3.88;;;1.80;;
54247;SDS011;40161;39.768;2.722;2022-07-11T00:55:18;4.28;;;1.90;;
54247;SDS011;40161;39.768;2.722;2022-07-11T00:57:45;3.75;;;1.90;;
54247;SDS011;40161;39.768;2.722;2022-07-11T01:00:11;4.20;;;1.92;;
54247;SDS011;40161;39.768;2.722;2022-07-11T01:02:37;3.10;;;1.58;;
54247;SDS011;40161;39.768;2.722;2022-07-11T01:05:04;4.10;;;1.67;;
54247;SDS011;40161;39.768;2.722;2022-07-11T01:07:30;4.55;;;1.90;;
54247;SDS011;40161;39.768;2.722;2022-07-11T01:09:55;3.38;;;1.77;;
54247;SDS011;40161;39.768;2.722;2022-07-11T01:12:21;4.45;;;1.70;;
54247;SDS011;40161;39.768;2.722;2022-07-11T01:14:51;4.00;;;1.90;;
54247;SDS011;40161;39.768;2.722;2022-07-11T01:17:20;3.92;;;1.80;;
54247;SDS011;40161;39.768;2.722;2022-07-11T01:19:45;3.35;;;2.00;;
54247;SDS011;40161;39.768;2.722;2022-07-11T01:22:11;3.20;;;1.80;;
54247;SDS011;40161;39.768;2.722;2022-07-11T01:24:39;4.32;;;1.92;;
54247;SDS011;40161;39.768;2.722;2022-07-11T01:27:05;3.97;;;1.90;;
54247;SDS011;40161;39.768;2.722;2022-07-11T01:29:32;4.60;;;1.67;;
54247;SDS011;40161;39.768;2.722;2022-07-11T01:31:58;3.50;;;1.50;;
54247;SDS011;40161;39.768;2.722;2022-07-11T01:34:23;3.25;;;1.80;;
54247;SDS011;40161;39.768;2.722;2022-07-11T01:36:49;3.67;;;1.92;;
54247;SDS011;40161;39.768;2.722;2022-07-11T01:39:14;4.18;;;1.70;;
54247;SDS011;40161;39.768;2.722;2022-07-11T01:41:40;3.78;;;1.70;;
54247;SDS011;40161;39.768;2.722;2022-07-11T01:44:05;4.85;;;2.20;;
54247;SDS011;40161;39.768;2.722;2022-07-11T01:46:31;3.40;;;2.20;;
54247;SDS011;40161;39.768;2.722;2022-07-11T01:48:56;2.83;;;1.65;;
54247;SDS011;40161;39.768;2.722;2022-07-11T01:51:22;3.03;;;1.90;;
54247;SDS011;40161;39.768;2.722;2022-07-11T01:53:48;4.38;;;2.15;;
54247;SDS011;40161;39.768;2.722;2022-07-11T01:56:14;3.65;;;1.75;;
54247;SDS011;40161;39.768;2.722;2022-07-11T01:58:39;4.35;;;2.28;;
54247;SDS011;40161;39.768;2.722;2022-07-11T02:01:05;4.60;;;1.92;;
54247;SDS011;40161;39.768;2.722;2022-07-11T02:03:30;3.25;;;1.85;;
54247;SDS011;40161;39.768;2.722;2022-07-11T02:05:56;3.13;;;1.67;;
54247;SDS011;40161;39.768;2.722;2022-07-11T02:08:21;3.80;;;1.90;;
54247;SDS011;40161;39.768;2.722;2022-07-11T02:10:48;3.22;;;1.77;;
54247;SDS011;40161;39.768;2.722;2022-07-11T02:13:15;3.50;;;2.00;;
54247;SDS011;40161;39.768;2.722;2022-07-11T02:15:43;2.65;;;1.80;;
54247;SDS011;40161;39.768;2.722;2022-07-11T02:18:10;3.22;;;1.90;;
54247;SDS011;40161;39.768;2.722;2022-07-11T02:20:37;3.70;;;1.90;;
54247;SDS011;40161;39.768;2.722;2022-07-11T02:23:04;2.63;;;1.70;;
54247;SDS011;40161;39.768;2.722;2022-07-11T02:25:30;2.95;;;1.77;;
54247;SDS011;40161;39.768;2.722;2022-07-11T02:27:56;4.28;;;1.88;;
54247;SDS011;40161;39.768;2.722;2022-07-11T02:30:21;2.78;;;1.63;;
54247;SDS011;40161;39.768;2.722;2022-07-11T02:32:48;3.97;;;1.75;;
54247;SDS011;40161;39.768;2.722;2022-07-11T02:35:16;4.03;;;2.10;;
54247;SDS011;40161;39.768;2.722;2022-07-11T02:37:43;3.95;;;2.08;;
54247;SDS011;40161;39.768;2.722;2022-07-11T02:40:09;5.03;;;2.00;;
54247;SDS011;40161;39.768;2.722;2022-07-11T02:42:35;3.53;;;1.92;;
54247;SDS011;40161;39.768;2.722;2022-07-11T02:45:01;3.60;;;1.98;;
54247;SDS011;40161;39.768;2.722;2022-07-11T02:47:27;3.50;;;2.08;;
54247;SDS011;40161;39.768;2.722;2022-07-11T02:49:52;4.38;;;2.28;;
54247;SDS011;40161;39.768;2.722;2022-07-11T02:52:18;4.60;;;2.20;;
54247;SDS011;40161;39.768;2.722;2022-07-11T02:54:43;3.67;;;1.70;;
54247;SDS011;40161;39.768;2.722;2022-07-11T02:57:09;4.40;;;2.13;;
54247;SDS011;40161;39.768;2.722;2022-07-11T02:59:34;5.78;;;2.22;;
54247;SDS011;40161;39.768;2.722;2022-07-11T03:02:00;4.20;;;2.08;;
54247;SDS011;40161;39.768;2.722;2022-07-11T03:04:27;4.38;;;2.05;;
54247;SDS011;40161;39.768;2.722;2022-07-11T03:06:53;3.58;;;1.90;;
54247;SDS011;40161;39.768;2.722;2022-07-11T03:09:19;3.88;;;1.70;;
54247;SDS011;40161;39.768;2.722;2022-07-11T03:11:44;2.97;;;1.83;;
54247;SDS011;40161;39.768;2.722;2022-07-11T03:14:10;3.17;;;1.80;;
54247;SDS011;40161;39.768;2.722;2022-07-11T03:16:35;3.97;;;1.75;;
54247;SDS011;40161;39.768;2.722;2022-07-11T03:19:01;3.75;;;2.20;;
54247;SDS011;40161;39.768;2.722;2022-07-11T03:21:26;3.17;;;1.88;;
54247;SDS011;40161;39.768;2.722;2022-07-11T03:23:52;4.10;;;2.03;;
54247;SDS011;40161;39.768;2.722;2022-07-11T03:26:18;4.03;;;2.00;;
54247;SDS011;40161;39.768;2.722;2022-07-11T03:28:43;3.40;;;1.75;;
54247;SDS011;40161;39.768;2.722;2022-07-11T03:31:09;2.92;;;1.60;;
54247;SDS011;40161;39.768;2.722;2022-07-11T03:33:36;2.88;;;1.83;;
54247;SDS011;40161;39.768;2.722;2022-07-11T03:36:01;3.80;;;1.65;;
54247;SDS011;40161;39.768;2.722;2022-07-11T03:38:27;5.75;;;1.95;;
54247;SDS011;40161;39.768;2.722;2022-07-11T03:40:53;3.58;;;2.03;;
54247;SDS011;40161;39.768;2.722;2022-07-11T03:43:20;3.42;;;1.73;;
54247;SDS011;40161;39.768;2.722;2022-07-11T03:45:46;2.92;;;1.80;;
54247;SDS011;40161;39.768;2.722;2022-07-11T03:48:12;3.42;;;2.03;;
54247;SDS011;40161;39.768;2.722;2022-07-11T03:50:37;5.13;;;2.28;;
54247;SDS011;40161;39.768;2.722;2022-07-11T03:53:03;4.03;;;2.10;;
54247;SDS011;40161;39.768;2.722;2022-07-11T03:55:30;3.88;;;2.10;;
54247;SDS011;40161;39.768;2.722;2022-07-11T03:57:56;4.40;;;2.33;;
54247;SDS011;40161;39.768;2.722;2022-07-11T04:00:21;4.82;;;2.60;;
54247;SDS011;40161;39.768;2.722;2022-07-11T04:02:47;5.07;;;2.13;;
54247;SDS011;40161;39.768;2.722;2022-07-11T04:05:13;5.45;;;2.03;;
54247;SDS011;40161;39.768;2.722;2022-07-11T04:07:39;4.68;;;2.13;;
54247;SDS011;40161;39.768;2.722;2022-07-11T04:10:05;5.55;;;1.83;;
54247;SDS011;40161;39.768;2.722;2022-07-11T04:12:31;4.30;;;1.95;;
54247;SDS011;40161;39.768;2.722;2022-07-11T04:14:56;4.75;;;1.67;;
54247;SDS011;40161;39.768;2.722;2022-07-11T04:17:22;5.80;;;1.90;;
54247;SDS011;40161;39.768;2.722;2022-07-11T04:19:47;4.25;;;1.80;;
54247;SDS011;40161;39.768;2.722;2022-07-11T04:22:13;3.35;;;1.67;;
54247;SDS011;40161;39.768;2.722;2022-07-11T04:24:38;3.22;;;1.77;;
54247;SDS011;40161;39.768;2.722;2022-07-11T04:27:04;3.72;;;1.60;;
54247;SDS011;40161;39.768;2.722;2022-07-11T04:29:30;3.55;;;1.73;;
54247;SDS011;40161;39.768;2.722;2022-07-11T04:31:55;4.80;;;2.00;;
54247;SDS011;40161;39.768;2.722;2022-07-11T04:34:21;4.65;;;2.30;;
54247;SDS011;40161;39.768;2.722;2022-07-11T04:36:46;5.35;;;2.00;;
54247;SDS011;40161;39.768;2.722;2022-07-11T04:39:12;4.35;;;1.70;;
54247;SDS011;40161;39.768;2.722;2022-07-11T04:41:37;3.85;;;2.00;;
54247;SDS011;40161;39.768;2.722;2022-07-11T04:44:03;3.08;;;1.90;;
54247;SDS011;40161;39.768;2.722;2022-07-11T04:46:29;3.75;;;1.80;;
54247;SDS011;40161;39.768;2.722;2022-07-11T04:48:55;4.30;;;1.90;;
54247;SDS011;40161;39.768;2.722;2022-07-11T04:51:21;4.13;;;1.90;;
54247;SDS011;40161;39.768;2.722;2022-07-11T04:53:47;4.63;;;1.90;;
54247;SDS011;40161;39.768;2.722;2022-07-11T04:56:13;3.58;;;2.05;;
54247;SDS011;40161;39.768;2.722;2022-07-11T04:58:38;8.85;;;2.00;;
54247;SDS011;40161;39.768;2.722;2022-07-11T05:01:04;5.35;;;2.25;;
54247;SDS011;40161;39.768;2.722;2022-07-11T05:03:30;6.28;;;2.28;;
54247;SDS011;40161;39.768;2.722;2022-07-11T05:05:57;6.40;;;2.00;;
54247;SDS011;40161;39.768;2.722;2022-07-11T05:08:23;5.55;;;2.40;;
54247;SDS011;40161;39.768;2.722;2022-07-11T05:10:49;4.78;;;2.40;;
54247;SDS011;40161;39.768;2.722;2022-07-11T05:13:15;3.92;;;2.40;;
54247;SDS011;40161;39.768;2.722;2022-07-11T05:15:40;5.03;;;2.08;;
54247;SDS011;40161;39.768;2.722;2022-07-11T05:18:06;5.07;;;2.30;;
54247;SDS011;40161;39.768;2.722;2022-07-11T05:20:32;4.25;;;2.30;;
54247;SDS011;40161;39.768;2.722;2022-07-11T05:22:57;6.40;;;2.17;;
54247;SDS011;40161;39.768;2.722;2022-07-11T05:25:24;5.80;;;2.22;;
54247;SDS011;40161;39.768;2.722;2022-07-11T05:27:50;5.72;;;2.35;;
54247;SDS011;40161;39.768;2.722;2022-07-11T05:30:15;6.20;;;2.28;;
54247;SDS011;40161;39.768;2.722;2022-07-11T05:32:41;7.90;;;2.40;;
54247;SDS011;40161;39.768;2.722;2022-07-11T05:35:07;6.10;;;2.00;;
54247;SDS011;40161;39.768;2.722;2022-07-11T05:37:33;4.75;;;1.85;;
54247;SDS011;40161;39.768;2.722;2022-07-11T05:39:58;3.83;;;1.80;;
54247;SDS011;40161;39.768;2.722;2022-07-11T05:42:24;3.92;;;2.03;;
54247;SDS011;40161;39.768;2.722;2022-07-11T05:44:49;5.18;;;2.15;;
54247;SDS011;40161;39.768;2.722;2022-07-11T05:47:15;4.30;;;2.05;;
54247;SDS011;40161;39.768;2.722;2022-07-11T05:49:41;4.90;;;2.15;;
54247;SDS011;40161;39.768;2.722;2022-07-11T05:52:07;6.78;;;2.17;;
54247;SDS011;40161;39.768;2.722;2022-07-11T05:54:33;10.52;;;2.08;;
54247;SDS011;40161;39.768;2.722;2022-07-11T05:56:58;8.18;;;2.60;;
54247;SDS011;40161;39.768;2.722;2022-07-11T05:59:26;5.15;;;1.92;;
54247;SDS011;40161;39.768;2.722;2022-07-11T06:01:52;18.80;;;7.45;;
54247;SDS011;40161;39.768;2.722;2022-07-11T06:04:17;29.10;;;12.10;;
54247;SDS011;40161;39.768;2.722;2022-07-11T06:06:43;16.98;;;7.53;;
54247;SDS011;40161;39.768;2.722;2022-07-11T06:09:08;25.95;;;10.05;;
54247;SDS011;40161;39.768;2.722;2022-07-11T06:11:34;16.23;;;6.10;;
54247;SDS011;40161;39.768;2.722;2022-07-11T06:13:59;25.88;;;10.27;;
54247;SDS011;40161;39.768;2.722;2022-07-11T06:16:25;24.92;;;10.52;;
54247;SDS011;40161;39.768;2.722;2022-07-11T06:18:50;15.73;;;6.65;;
54247;SDS011;40161;39.768;2.722;2022-07-11T06:21:16;11.02;;;3.88;;
54247;SDS011;40161;39.768;2.722;2022-07-11T06:23:42;5.93;;;2.58;;
54247;SDS011;40161;39.768;2.722;2022-07-11T06:26:08;8.00;;;3.15;;
54247;SDS011;40161;39.768;2.722;2022-07-11T06:28:36;8.00;;;2.50;;
54247;SDS011;40161;39.768;2.722;2022-07-11T06:31:02;8.57;;;2.33;;
54247;SDS011;40161;39.768;2.722;2022-07-11T06:33:27;8.90;;;2.25;;
54247;SDS011;40161;39.768;2.722;2022-07-11T06:35:53;7.28;;;2.22;;
54247;SDS011;40161;39.768;2.722;2022-07-11T06:38:18;7.05;;;2.92;;
54247;SDS011;40161;39.768;2.722;2022-07-11T06:40:44;9.05;;;2.92;;
54247;SDS011;40161;39.768;2.722;2022-07-11T06:43:10;9.65;;;3.72;;
54247;SDS011;40161;39.768;2.722;2022-07-11T06:45:36;12.00;;;4.70;;
54247;SDS011;40161;39.768;2.722;2022-07-11T06:48:02;13.55;;;5.32;;
54247;SDS011;40161;39.768;2.722;2022-07-11T06:50:29;12.43;;;5.15;;
54247;SDS011;40161;39.768;2.722;2022-07-11T06:52:54;10.40;;;5.32;;
54247;SDS011;40161;39.768;2.722;2022-07-11T06:55:20;11.27;;;5.95;;
54247;SDS011;40161;39.768;2.722;2022-07-11T06:57:45;16.90;;;9.20;;
54247;SDS011;40161;39.768;2.722;2022-07-11T07:00:11;18.73;;;10.95;;
54247;SDS011;40161;39.768;2.722;2022-07-11T07:02:37;19.63;;;12.38;;
54247;SDS011;40161;39.768;2.722;2022-07-11T07:05:03;20.08;;;11.57;;
54247;SDS011;40161;39.768;2.722;2022-07-11T07:07:32;17.75;;;9.30;;
54247;SDS011;40161;39.768;2.722;2022-07-11T07:09:58;12.15;;;7.55;;
54247;SDS011;40161;39.768;2.722;2022-07-11T07:12:23;11.57;;;7.45;;
54247;SDS011;40161;39.768;2.722;2022-07-11T07:14:49;10.48;;;6.07;;
54247;SDS011;40161;39.768;2.722;2022-07-11T07:17:15;12.65;;;6.18;;
54247;SDS011;40161;39.768;2.722;2022-07-11T07:19:41;9.73;;;4.63;;
54247;SDS011;40161;39.768;2.722;2022-07-11T07:22:06;10.77;;;4.00;;
54247;SDS011;40161;39.768;2.722;2022-07-11T07:24:33;6.30;;;3.25;;
54247;SDS011;40161;39.768;2.722;2022-07-11T07:26:59;6.53;;;3.45;;
54247;SDS011;40161;39.768;2.722;2022-07-11T07:29:25;7.43;;;2.83;;
54247;SDS011;40161;39.768;2.722;2022-07-11T07:31:51;7.00;;;2.97;;
54247;SDS011;40161;39.768;2.722;2022-07-11T07:34:18;5.80;;;2.60;;
54247;SDS011;40161;39.768;2.722;2022-07-11T07:36:44;4.53;;;2.00;;
54247;SDS011;40161;39.768;2.722;2022-07-11T07:39:10;4.90;;;2.20;;
54247;SDS011;40161;39.768;2.722;2022-07-11T07:41:36;4.32;;;1.83;;
54247;SDS011;40161;39.768;2.722;2022-07-11T07:44:01;3.88;;;2.00;;
54247;SDS011;40161;39.768;2.722;2022-07-11T07:46:27;3.80;;;1.98;;
54247;SDS011;40161;39.768;2.722;2022-07-11T07:48:53;3.53;;;1.67;;
54247;SDS011;40161;39.768;2.722;2022-07-11T07:51:19;3.30;;;1.65;;
54247;SDS011;40161;39.768;2.722;2022-07-11T07:53:46;4.03;;;1.60;;
54247;SDS011;40161;39.768;2.722;2022-07-11T07:56:12;3.22;;;1.60;;
54247;SDS011;40161;39.768;2.722;2022-07-11T07:58:38;3.45;;;1.80;;
54247;SDS011;40161;39.768;2.722;2022-07-11T08:01:03;3.35;;;1.90;;
54247;SDS011;40161;39.768;2.722;2022-07-11T08:03:48;3.13;;;1.77;;
54247;SDS011;40161;39.768;2.722;2022-07-11T08:06:14;3.70;;;1.60;;
54247;SDS011;40161;39.768;2.722;2022-07-11T08:08:39;3.22;;;1.75;;
54247;SDS011;40161;39.768;2.722;2022-07-11T08:11:05;4.72;;;1.80;;
54247;SDS011;40161;39.768;2.722;2022-07-11T08:13:30;4.35;;;1.95;;
54247;SDS011;40161;39.768;2.722;2022-07-11T08:15:56;6.05;;;2.85;;
54247;SDS011;40161;39.768;2.722;2022-07-11T08:18:21;7.40;;;3.95;;
54247;SDS011;40161;39.768;2.722;2022-07-11T08:20:47;9.55;;;5.03;;
54247;SDS011;40161;39.768;2.722;2022-07-11T08:23:12;7.60;;;4.65;;
54247;SDS011;40161;39.768;2.722;2022-07-11T08:25:38;8.18;;;5.10;;
54247;SDS011;40161;39.768;2.722;2022-07-11T08:28:05;8.63;;;4.35;;
54247;SDS011;40161;39.768;2.722;2022-07-11T08:30:31;6.93;;;3.45;;
54247;SDS011;40161;39.768;2.722;2022-07-11T08:32:57;5.28;;;2.75;;
54247;SDS011;40161;39.768;2.722;2022-07-11T08:35:23;5.75;;;2.50;;
54247;SDS011;40161;39.768;2.722;2022-07-11T08:37:48;5.18;;;2.40;;
54247;SDS011;40161;39.768;2.722;2022-07-11T08:40:14;3.85;;;2.00;;
54247;SDS011;40161;39.768;2.722;2022-07-11T08:42:41;4.43;;;2.00;;
54247;SDS011;40161;39.768;2.722;2022-07-11T08:45:11;4.10;;;1.80;;
54247;SDS011;40161;39.768;2.722;2022-07-11T08:47:38;3.50;;;1.63;;
54247;SDS011;40161;39.768;2.722;2022-07-11T08:50:04;4.63;;;1.70;;
54247;SDS011;40161;39.768;2.722;2022-07-11T08:52:31;4.32;;;1.48;;
54247;SDS011;40161;39.768;2.722;2022-07-11T08:54:57;3.67;;;1.50;;
54247;SDS011;40161;39.768;2.722;2022-07-11T08:57:23;2.72;;;1.38;;
54247;SDS011;40161;39.768;2.722;2022-07-11T08:59:49;5.00;;;1.55;;
54247;SDS011;40161;39.768;2.722;2022-07-11T09:02:20;3.10;;;1.50;;
54247;SDS011;40161;39.768;2.722;2022-07-11T09:04:46;3.35;;;1.30;;
54247;SDS011;40161;39.768;2.722;2022-07-11T09:07:12;2.83;;;1.30;;
54247;SDS011;40161;39.768;2.722;2022-07-11T09:09:38;3.45;;;1.35;;
54247;SDS011;40161;39.768;2.722;2022-07-11T09:12:09;2.65;;;1.20;;
54247;SDS011;40161;39.768;2.722;2022-07-11T09:14:39;4.00;;;1.30;;
54247;SDS011;40161;39.768;2.722;2022-07-11T09:17:05;2.17;;;1.10;;
54247;SDS011;40161;39.768;2.722;2022-07-11T09:19:32;2.92;;;1.30;;
54247;SDS011;40161;39.768;2.722;2022-07-11T09:22:08;1.48;;;1.02;;
54247;SDS011;40161;39.768;2.722;2022-07-11T09:25:01;3.20;;;1.30;;
54247;SDS011;40161;39.768;2.722;2022-07-11T09:27:55;3.30;;;1.20;;
54247;SDS011;40161;39.768;2.722;2022-07-11T09:30:44;2.80;;;1.10;;
54247;SDS011;40161;39.768;2.722;2022-07-11T09:33:10;3.05;;;1.20;;
54247;SDS011;40161;39.768;2.722;2022-07-11T09:35:38;2.85;;;1.00;;
54247;SDS011;40161;39.768;2.722;2022-07-11T09:38:05;1.88;;;1.05;;
54247;SDS011;40161;39.768;2.722;2022-07-11T09:40:38;4.85;;;1.23;;
54247;SDS011;40161;39.768;2.722;2022-07-11T09:43:08;5.82;;;1.45;;
54247;SDS011;40161;39.768;2.722;2022-07-11T09:45:34;3.70;;;1.10;;
54247;SDS011;40161;39.768;2.722;2022-07-11T09:48:06;3.00;;;1.10;;
54247;SDS011;40161;39.768;2.722;2022-07-11T09:50:36;5.20;;;1.20;;
54247;SDS011;40161;39.768;2.722;2022-07-11T09:55:37;4.35;;;1.40;;
54247;SDS011;40161;39.768;2.722;2022-07-11T09:58:09;2.78;;;1.40;;
54247;SDS011;40161;39.768;2.722;2022-07-11T10:00:37;2.63;;;1.20;;
54247;SDS011;40161;39.768;2.722;2022-07-11T10:03:04;2.22;;;1.08;;
54247;SDS011;40161;39.768;2.722;2022-07-11T10:05:31;2.55;;;1.00;;
54247;SDS011;40161;39.768;2.722;2022-07-11T10:07:57;3.05;;;1.38;;
54247;SDS011;40161;39.768;2.722;2022-07-11T10:10:24;1.70;;;1.00;;
54247;SDS011;40161;39.768;2.722;2022-07-11T10:12:54;2.58;;;1.10;;
54247;SDS011;40161;39.768;2.722;2022-07-11T10:15:22;2.08;;;1.13;;
54247;SDS011;40161;39.768;2.722;2022-07-11T10:28:54;5.97;;;1.20;;
54247;SDS011;40161;39.768;2.722;2022-07-11T10:31:24;2.83;;;1.35;;
54247;SDS011;40161;39.768;2.722;2022-07-11T10:37:25;2.20;;;1.30;;
54247;SDS011;40161;39.768;2.722;2022-07-11T10:39:57;3.03;;;1.20;;
54247;SDS011;40161;39.768;2.722;2022-07-11T10:42:24;2.92;;;1.20;;
54247;SDS011;40161;39.768;2.722;2022-07-11T10:45:06;5.25;;;1.10;;
54247;SDS011;40161;39.768;2.722;2022-07-11T10:47:34;1.70;;;1.10;;
54247;SDS011;40161;39.768;2.722;2022-07-11T10:50:08;3.33;;;1.08;;
54247;SDS011;40161;39.768;2.722;2022-07-11T10:53:07;3.35;;;1.10;;
54247;SDS011;40161;39.768;2.722;2022-07-11T10:55:35;3.47;;;1.15;;
54247;SDS011;40161;39.768;2.722;2022-07-11T11:00:43;1.77;;;1.00;;
54247;SDS011;40161;39.768;2.722;2022-07-11T11:03:12;2.45;;;0.90;;
54247;SDS011;40161;39.768;2.722;2022-07-11T11:11:07;2.75;;;1.38;;
54247;SDS011;40161;39.768;2.722;2022-07-11T11:16:41;2.13;;;1.05;;
54247;SDS011;40161;39.768;2.722;2022-07-11T11:19:07;1.52;;;0.95;;
54247;SDS011;40161;39.768;2.722;2022-07-11T11:21:32;3.75;;;1.00;;
54247;SDS011;40161;39.768;2.722;2022-07-11T11:26:47;2.65;;;1.20;;
54247;SDS011;40161;39.768;2.722;2022-07-11T11:29:23;3.72;;;1.00;;
54247;SDS011;40161;39.768;2.722;2022-07-11T11:31:55;3.15;;;1.52;;
54247;SDS011;40161;39.768;2.722;2022-07-11T11:34:22;2.05;;;1.05;;
54247;SDS011;40161;39.768;2.722;2022-07-11T11:36:51;2.42;;;1.10;;
54247;SDS011;40161;39.768;2.722;2022-07-11T11:39:25;2.58;;;1.30;;
54247;SDS011;40161;39.768;2.722;2022-07-11T11:41:52;2.67;;;1.13;;
54247;SDS011;40161;39.768;2.722;2022-07-11T11:44:17;4.63;;;1.13;;
54247;SDS011;40161;39.768;2.722;2022-07-11T11:46:43;2.78;;;1.17;;
54247;SDS011;40161;39.768;2.722;2022-07-11T11:49:08;2.35;;;1.02;;
54247;SDS011;40161;39.768;2.722;2022-07-11T11:51:34;1.75;;;0.95;;
54247;SDS011;40161;39.768;2.722;2022-07-11T11:54:00;3.65;;;1.10;;
54247;SDS011;40161;39.768;2.722;2022-07-11T11:56:31;2.00;;;1.00;;
54247;SDS011;40161;39.768;2.722;2022-07-11T12:01:27;2.30;;;0.90;;
54247;SDS011;40161;39.768;2.722;2022-07-11T12:03:57;2.10;;;1.20;;
54247;SDS011;40161;39.768;2.722;2022-07-11T12:06:26;3.45;;;1.33;;
54247;SDS011;40161;39.768;2.722;2022-07-11T12:11:47;2.08;;;1.00;;
54247;SDS011;40161;39.768;2.722;2022-07-11T12:16:59;2.58;;;1.30;;
54247;SDS011;40161;39.768;2.722;2022-07-11T12:19:25;2.33;;;1.00;;
54247;SDS011;40161;39.768;2.722;2022-07-11T12:21:58;1.80;;;0.85;;
54247;SDS011;40161;39.768;2.722;2022-07-11T12:24:25;2.45;;;1.13;;
54247;SDS011;40161;39.768;2.722;2022-07-11T12:26:51;3.22;;;1.40;;
54247;SDS011;40161;39.768;2.722;2022-07-11T12:29:26;2.33;;;1.10;;
54247;SDS011;40161;39.768;2.722;2022-07-11T12:31:53;2.92;;;1.17;;
54247;SDS011;40161;39.768;2.722;2022-07-11T12:37:06;2.17;;;0.93;;
54247;SDS011;40161;39.768;2.722;2022-07-11T12:39:32;2.38;;;0.90;;
54247;SDS011;40161;39.768;2.722;2022-07-11T12:42:00;2.28;;;1.02;;
54247;SDS011;40161;39.768;2.722;2022-07-11T12:44:53;5.00;;;1.15;;
54247;SDS011;40161;39.768;2.722;2022-07-11T12:47:24;1.88;;;0.95;;
54247;SDS011;40161;39.768;2.722;2022-07-11T12:49:54;1.92;;;0.82;;
54247;SDS011;40161;39.768;2.722;2022-07-11T12:52:21;2.38;;;1.02;;
54247;SDS011;40161;39.768;2.722;2022-07-11T12:54:47;2.80;;;1.00;;
54247;SDS011;40161;39.768;2.722;2022-07-11T12:57:15;3.42;;;1.20;;
54247;SDS011;40161;39.768;2.722;2022-07-11T12:59:42;5.40;;;1.15;;
54247;SDS011;40161;39.768;2.722;2022-07-11T13:02:08;2.40;;;1.05;;
54247;SDS011;40161;39.768;2.722;2022-07-11T13:07:33;4.35;;;1.00;;
54247;SDS011;40161;39.768;2.722;2022-07-11T13:12:46;1.80;;;1.00;;
54247;SDS011;40161;39.768;2.722;2022-07-11T13:15:13;3.42;;;1.20;;
54247;SDS011;40161;39.768;2.722;2022-07-11T13:17:45;3.05;;;0.90;;
54247;SDS011;40161;39.768;2.722;2022-07-11T13:20:12;2.90;;;1.10;;
54247;SDS011;40161;39.768;2.722;2022-07-11T13:22:44;1.85;;;0.90;;
54247;SDS011;40161;39.768;2.722;2022-07-11T13:25:10;3.55;;;1.27;;
54247;SDS011;40161;39.768;2.722;2022-07-11T13:27:38;1.38;;;0.90;;
54247;SDS011;40161;39.768;2.722;2022-07-11T13:30:04;2.45;;;1.00;;
54247;SDS011;40161;39.768;2.722;2022-07-11T13:35:01;2.42;;;1.35;;
54247;SDS011;40161;39.768;2.722;2022-07-11T13:37:27;2.03;;;0.90;;
54247;SDS011;40161;39.768;2.722;2022-07-11T13:39:53;2.97;;;0.98;;
54247;SDS011;40161;39.768;2.722;2022-07-11T13:42:18;2.60;;;1.00;;
54247;SDS011;40161;39.768;2.722;2022-07-11T13:44:44;2.45;;;0.93;;
54247;SDS011;40161;39.768;2.722;2022-07-11T13:47:09;1.88;;;1.00;;
54247;SDS011;40161;39.768;2.722;2022-07-11T13:49:35;2.60;;;1.13;;
54247;SDS011;40161;39.768;2.722;2022-07-11T13:52:00;3.20;;;1.10;;
54247;SDS011;40161;39.768;2.722;2022-07-11T13:54:26;3.50;;;1.52;;
54247;SDS011;40161;39.768;2.722;2022-07-11T13:56:51;3.13;;;0.90;;
54247;SDS011;40161;39.768;2.722;2022-07-11T13:59:17;2.30;;;0.90;;
54247;SDS011;40161;39.768;2.722;2022-07-11T14:01:42;2.30;;;0.90;;
54247;SDS011;40161;39.768;2.722;2022-07-11T14:04:08;3.40;;;1.13;;
54247;SDS011;40161;39.768;2.722;2022-07-11T14:06:33;1.63;;;0.90;;
54247;SDS011;40161;39.768;2.722;2022-07-11T14:09:01;3.00;;;0.90;;
54247;SDS011;40161;39.768;2.722;2022-07-11T14:11:27;2.50;;;1.08;;
54247;SDS011;40161;39.768;2.722;2022-07-11T14:13:52;2.88;;;0.95;;
54247;SDS011;40161;39.768;2.722;2022-07-11T14:16:18;3.85;;;0.95;;
54247;SDS011;40161;39.768;2.722;2022-07-11T14:18:44;1.85;;;0.88;;
54247;SDS011;40161;39.768;2.722;2022-07-11T14:21:10;1.45;;;0.77;;
54247;SDS011;40161;39.768;2.722;2022-07-11T14:23:35;4.47;;;1.30;;
54247;SDS011;40161;39.768;2.722;2022-07-11T14:26:01;2.92;;;0.90;;
54247;SDS011;40161;39.768;2.722;2022-07-11T14:28:30;3.33;;;1.00;;
54247;SDS011;40161;39.768;2.722;2022-07-11T14:30:56;2.67;;;1.10;;
54247;SDS011;40161;39.768;2.722;2022-07-11T14:33:23;2.17;;;0.90;;
54247;SDS011;40161;39.768;2.722;2022-07-11T14:35:49;2.50;;;0.90;;
54247;SDS011;40161;39.768;2.722;2022-07-11T14:38:14;3.33;;;0.80;;
54247;SDS011;40161;39.768;2.722;2022-07-11T14:40:40;2.60;;;0.90;;
54247;SDS011;40161;39.768;2.722;2022-07-11T14:43:05;5.60;;;1.10;;
54247;SDS011;40161;39.768;2.722;2022-07-11T14:45:31;2.83;;;0.90;;
54247;SDS011;40161;39.768;2.722;2022-07-11T14:47:56;2.33;;;0.90;;
54247;SDS011;40161;39.768;2.722;2022-07-11T14:50:22;3.85;;;0.90;;
54247;SDS011;40161;39.768;2.722;2022-07-11T14:52:47;3.03;;;1.08;;
54247;SDS011;40161;39.768;2.722;2022-07-11T14:55:13;4.35;;;1.10;;
54247;SDS011;40161;39.768;2.722;2022-07-11T14:57:39;4.30;;;1.20;;
54247;SDS011;40161;39.768;2.722;2022-07-11T15:00:05;2.08;;;0.88;;
54247;SDS011;40161;39.768;2.722;2022-07-11T15:02:32;2.40;;;1.00;;
54247;SDS011;40161;39.768;2.722;2022-07-11T15:05:16;2.53;;;0.90;;
54247;SDS011;40161;39.768;2.722;2022-07-11T15:07:42;2.67;;;1.00;;
54247;SDS011;40161;39.768;2.722;2022-07-11T15:10:26;4.13;;;1.10;;
54247;SDS011;40161;39.768;2.722;2022-07-11T15:13:10;3.08;;;1.00;;
54247;SDS011;40161;39.768;2.722;2022-07-11T15:15:35;2.20;;;1.00;;
54247;SDS011;40161;39.768;2.722;2022-07-11T15:18:01;4.18;;;0.80;;
54247;SDS011;40161;39.768;2.722;2022-07-11T15:20:26;3.65;;;0.90;;
54247;SDS011;40161;39.768;2.722;2022-07-11T15:22:52;2.13;;;1.00;;
54247;SDS011;40161;39.768;2.722;2022-07-11T15:25:18;2.17;;;1.00;;
54247;SDS011;40161;39.768;2.722;2022-07-11T15:27:44;2.05;;;0.93;;
54247;SDS011;40161;39.768;2.722;2022-07-11T15:30:10;3.00;;;1.05;;
54247;SDS011;40161;39.768;2.722;2022-07-11T15:32:38;2.67;;;1.20;;
54247;SDS011;40161;39.768;2.722;2022-07-11T15:35:04;2.28;;;1.02;;